createdAt,value
2022-09-26T00:00:11.907Z,53.08
2022-09-26T00:03:24.735Z,53.12
2022-09-26T00:06:17.419Z,53.11
2022-09-26T00:09:07.485Z,53.11
2022-09-26T00:11:58.444Z,53.10
2022-09-26T00:14:48.382Z,53.13
2022-09-26T00:17:38.609Z,53.13
2022-09-26T00:20:28.796Z,53.14
2022-09-26T00:23:19.697Z,53.13
2022-09-26T00:26:10.304Z,53.14
2022-09-26T00:29:03.850Z,53.16
2022-09-26T00:31:53.825Z,53.18
2022-09-26T00:34:44.152Z,53.16
2022-09-26T00:37:34.184Z,53.20
2022-09-26T00:40:26.627Z,53.24
2022-09-26T00:43:31.525Z,53.19
2022-09-26T00:46:30.193Z,53.17
2022-09-26T00:49:24.842Z,53.19
2022-09-26T00:52:17.588Z,53.21
2022-09-26T00:55:10.968Z,53.23
2022-09-26T00:58:04.503Z,53.23
2022-09-26T01:00:54.610Z,53.24
2022-09-26T01:03:45.962Z,53.25
2022-09-26T01:06:35.901Z,53.26
2022-09-26T01:09:25.871Z,53.24
2022-09-26T01:12:15.949Z,53.27
2022-09-26T01:15:08.496Z,53.31
2022-09-26T01:17:58.696Z,53.31
2022-09-26T01:20:53.862Z,53.29
2022-09-26T01:24:16.904Z,53.29
2022-09-26T01:27:29.898Z,53.25
2022-09-26T01:30:21.197Z,53.25
2022-09-26T01:33:33.673Z,53.27
2022-09-26T01:37:01.567Z,53.26
2022-09-26T01:39:57.267Z,53.27
2022-09-26T01:42:59.413Z,53.31
2022-09-26T01:45:53.573Z,53.31
2022-09-26T01:48:47.877Z,53.33
2022-09-26T01:51:41.272Z,53.34
2022-09-26T01:54:41.988Z,53.36
2022-09-26T01:57:34.145Z,53.35
2022-09-26T02:00:24.966Z,53.38
2022-09-26T02:03:18.125Z,53.39
2022-09-26T02:06:11.413Z,53.38
2022-09-26T02:09:07.607Z,53.41
2022-09-26T02:12:00.192Z,53.44
2022-09-26T02:14:51.814Z,53.46
2022-09-26T02:17:44.196Z,53.50
2022-09-26T02:20:37.714Z,53.51
2022-09-26T02:23:27.663Z,53.48
2022-09-26T02:26:18.738Z,53.51
2022-09-26T02:29:09.280Z,53.47
2022-09-26T02:32:02.483Z,53.50
2022-09-26T02:34:52.712Z,53.49
2022-09-26T02:37:42.862Z,53.49
2022-09-26T02:40:37.649Z,53.49
2022-09-26T02:44:08.168Z,53.50
2022-09-26T02:47:29.957Z,53.52
2022-09-26T02:50:49.547Z,53.58
2022-09-26T02:53:54.130Z,53.56
2022-09-26T02:56:56.669Z,53.61
2022-09-26T02:59:53.559Z,53.62
2022-09-26T03:02:49.800Z,53.65
2022-09-26T03:05:42.266Z,53.62
2022-09-26T03:08:35.724Z,53.59
2022-09-26T03:11:26.417Z,53.63
2022-09-26T03:14:16.474Z,53.66
2022-09-26T03:17:06.627Z,53.67
2022-09-26T03:19:59.854Z,53.68
2022-09-26T03:22:49.708Z,53.66
2022-09-26T03:25:40.631Z,53.68
2022-09-26T03:28:37.673Z,53.65
2022-09-26T03:31:28.438Z,53.66
2022-09-26T03:34:22.852Z,53.61
2022-09-26T03:37:13.247Z,53.67
2022-09-26T03:40:04.164Z,53.68
2022-09-26T03:43:11.893Z,53.67
2022-09-26T03:46:04.654Z,53.67
2022-09-26T03:48:54.669Z,53.66
2022-09-26T03:51:45.344Z,53.66
2022-09-26T03:54:35.410Z,53.64
2022-09-26T03:57:25.572Z,53.65
2022-09-26T04:00:20.531Z,53.66
2022-09-26T04:03:10.517Z,53.61
2022-09-26T04:06:02.484Z,53.62
2022-09-26T04:08:53.364Z,53.65
2022-09-26T04:11:43.490Z,53.63
2022-09-26T04:14:33.694Z,53.65
2022-09-26T04:17:23.704Z,53.68
2022-09-26T04:20:13.678Z,53.71
2022-09-26T04:23:05.256Z,53.70
2022-09-26T04:25:55.286Z,53.69
2022-09-26T04:28:46.158Z,53.74
2022-09-26T04:31:37.173Z,53.75
2022-09-26T04:34:38.975Z,53.71
2022-09-26T04:37:34.104Z,53.71
2022-09-26T04:40:24.147Z,53.72
2022-09-26T04:43:24.353Z,53.71
2022-09-26T04:46:21.013Z,53.70
2022-09-26T04:49:13.639Z,53.72
2022-09-26T04:52:03.918Z,53.73
2022-09-26T04:54:53.833Z,53.72
2022-09-26T04:57:43.776Z,53.73
2022-09-26T05:00:35.486Z,53.71
2022-09-26T05:03:28.983Z,53.73
2022-09-26T05:06:18.970Z,53.74
2022-09-26T05:09:08.900Z,53.75
2022-09-26T05:12:08.110Z,53.75
2022-09-26T05:14:59.572Z,53.74
2022-09-26T05:17:55.803Z,53.76
2022-09-26T05:20:47.741Z,53.74
2022-09-26T05:24:04.490Z,53.78
2022-09-26T05:26:55.294Z,53.77
2022-09-26T05:29:45.245Z,53.80
2022-09-26T05:32:35.614Z,53.83
2022-09-26T05:35:25.615Z,53.82
2022-09-26T05:38:15.602Z,53.84
2022-09-26T05:41:06.199Z,53.84
2022-09-26T05:43:56.335Z,53.85
2022-09-26T05:46:46.763Z,53.78
2022-09-26T05:49:36.954Z,53.65
2022-09-26T05:52:29.582Z,52.78
2022-09-26T05:55:19.988Z,51.88
2022-09-26T05:58:31.641Z,51.24
2022-09-26T06:01:51.316Z,50.73
2022-09-26T06:04:49.700Z,50.28
2022-09-26T06:08:12.636Z,50.05
2022-09-26T06:11:09.055Z,49.58
2022-09-26T06:13:59.896Z,49.59
2022-09-26T06:16:50.148Z,49.89
2022-09-26T06:19:40.280Z,50.41
2022-09-26T06:22:33.421Z,50.69
2022-09-26T06:25:23.733Z,50.87
2022-09-26T06:28:14.329Z,51.05
2022-09-26T06:31:11.853Z,51.27
2022-09-26T06:34:21.814Z,51.38
2022-09-26T06:37:19.927Z,51.48
2022-09-26T06:40:11.303Z,51.56
2022-09-26T06:43:01.500Z,51.62
2022-09-26T06:46:11.559Z,51.69
2022-09-26T06:49:34.364Z,51.77
2022-09-26T06:52:26.980Z,51.86
2022-09-26T06:55:17.608Z,51.87
2022-09-26T06:58:08.536Z,51.79
2022-09-26T07:01:12.131Z,51.63
2022-09-26T07:04:15.558Z,51.44
2022-09-26T07:07:18.925Z,51.23
2022-09-26T07:10:10.428Z,51.04
2022-09-26T07:13:04.501Z,50.82
2022-09-26T07:15:58.082Z,50.75
2022-09-26T07:19:15.746Z,50.61
2022-09-26T07:22:26.561Z,50.64
2022-09-26T07:25:18.878Z,50.55
2022-09-26T07:28:10.128Z,50.44
2022-09-26T07:31:11.453Z,50.47
2022-09-26T07:34:31.533Z,50.44
2022-09-26T07:37:22.130Z,50.40
2022-09-26T07:40:13.095Z,50.35
2022-09-26T07:43:19.105Z,50.40
2022-09-26T07:46:29.474Z,50.70
2022-09-26T07:49:38.634Z,50.98
2022-09-26T07:52:49.322Z,51.27
2022-09-26T07:56:02.638Z,51.01
2022-09-26T07:59:22.286Z,51.20
2022-09-26T08:02:34.004Z,51.43
2022-09-26T08:05:25.707Z,51.54
2022-09-26T08:08:16.005Z,51.51
2022-09-26T08:11:24.715Z,51.66
2022-09-26T08:14:31.257Z,51.64
2022-09-26T08:17:47.350Z,51.68
2022-09-26T08:20:37.708Z,51.68
2022-09-26T08:23:28.802Z,51.69
2022-09-26T08:26:41.855Z,51.66
2022-09-26T08:29:39.078Z,51.70
2022-09-26T08:32:31.108Z,51.73
2022-09-26T08:35:21.605Z,51.56
2022-09-26T08:38:37.657Z,51.49
2022-09-26T08:42:28.114Z,51.53
2022-09-26T08:46:01.229Z,51.54
2022-09-26T08:49:39.451Z,51.21
2022-09-26T08:52:33.204Z,50.94
2022-09-26T08:55:27.181Z,50.78
2022-09-26T08:58:19.576Z,50.87
2022-09-26T09:01:13.499Z,50.91
2022-09-26T09:04:27.666Z,50.95
2022-09-26T09:07:22.296Z,51.05
2022-09-26T09:10:17.896Z,51.18
2022-09-26T09:13:45.064Z,51.18
2022-09-26T09:17:06.459Z,51.02
2022-09-26T09:20:19.787Z,51.00
2022-09-26T09:23:40.709Z,50.88
2022-09-26T09:30:15.700Z,50.98
2022-09-26T09:33:34.234Z,51.02
2022-09-26T09:36:44.390Z,51.05
2022-09-26T09:39:47.346Z,51.00
2022-09-26T09:42:42.652Z,50.87
2022-09-26T09:45:41.756Z,50.87
2022-09-26T09:48:31.664Z,50.88
2022-09-26T09:51:38.976Z,50.84
2022-09-26T09:54:46.493Z,50.74
2022-09-26T09:57:52.175Z,50.79
2022-09-26T10:00:51.039Z,50.83
2022-09-26T10:03:49.430Z,50.87
2022-09-26T10:06:46.165Z,50.87
2022-09-26T10:09:41.145Z,50.71
2022-09-26T10:12:50.768Z,50.58
2022-09-26T10:16:19.658Z,50.37
2022-09-26T10:19:21.407Z,50.19
2022-09-26T10:22:24.420Z,50.09
2022-09-26T10:25:18.471Z,50.21
2022-09-26T10:28:12.655Z,50.05
2022-09-26T10:31:07.832Z,49.95
2022-09-26T10:34:21.941Z,49.89
2022-09-26T10:37:23.546Z,49.79
2022-09-26T10:40:47.433Z,49.76
2022-09-26T10:43:38.726Z,49.87
2022-09-26T10:46:34.949Z,49.69
2022-09-26T10:49:47.140Z,49.64
2022-09-26T10:53:09.595Z,49.74
2022-09-26T10:56:04.819Z,49.73
2022-09-26T10:58:58.644Z,49.89
2022-09-26T11:01:50.882Z,49.95
2022-09-26T11:05:04.706Z,50.06
2022-09-26T11:08:22.415Z,50.13
2022-09-26T11:11:27.418Z,50.14
2022-09-26T11:14:28.665Z,50.21
2022-09-26T11:17:47.006Z,50.19
2022-09-26T11:20:49.195Z,50.12
2022-09-26T11:23:44.103Z,50.16
2022-09-26T11:26:37.345Z,50.22
2022-09-26T11:29:38.592Z,50.06
2022-09-26T11:32:40.481Z,49.97
2022-09-26T11:35:58.403Z,50.04
2022-09-26T11:38:53.264Z,50.16
2022-09-26T11:41:55.423Z,50.11
2022-09-26T11:44:56.024Z,49.86
2022-09-26T11:48:25.468Z,49.66
2022-09-26T11:51:50.232Z,49.57
2022-09-26T11:54:56.376Z,49.60
2022-09-26T11:57:53.788Z,49.57
2022-09-26T12:00:51.228Z,49.57
2022-09-26T12:04:05.880Z,49.62
2022-09-26T12:07:01.271Z,49.54
2022-09-26T12:10:06.540Z,49.40
2022-09-26T12:13:11.982Z,49.19
2022-09-26T12:16:09.350Z,49.14
2022-09-26T12:19:04.632Z,49.23
2022-09-26T12:22:18.818Z,49.18
2022-09-26T12:25:29.124Z,49.20
2022-09-26T12:28:40.994Z,49.30
2022-09-26T12:31:42.033Z,49.38
2022-09-26T12:34:58.833Z,49.46
2022-09-26T12:38:02.812Z,49.52
2022-09-26T12:41:01.794Z,49.46
2022-09-26T12:44:22.428Z,49.35
2022-09-26T12:47:41.530Z,49.24
2022-09-26T12:50:39.637Z,49.12
2022-09-26T12:54:08.794Z,48.98
2022-09-26T12:57:03.848Z,48.98
2022-09-26T13:00:10.473Z,48.48
2022-09-26T13:03:45.271Z,48.29
2022-09-26T13:07:18.354Z,48.16
2022-09-26T13:10:21.387Z,48.18
2022-09-26T13:13:51.427Z,48.32
2022-09-26T13:16:50.764Z,48.46
2022-09-26T13:19:44.051Z,48.57
2022-09-26T13:22:38.160Z,48.59
2022-09-26T13:25:31.610Z,48.42
2022-09-26T13:28:23.515Z,48.11
2022-09-26T13:31:18.423Z,48.02
2022-09-26T13:34:13.671Z,47.85
2022-09-26T13:37:04.374Z,47.90
2022-09-26T13:39:56.616Z,47.94
2022-09-26T13:42:50.237Z,47.92
2022-09-26T13:45:52.726Z,47.85
2022-09-26T13:48:49.556Z,47.57
2022-09-26T13:51:45.662Z,47.34
2022-09-26T13:54:55.153Z,47.23
2022-09-26T13:58:03.175Z,47.09
2022-09-26T14:00:53.504Z,47.20
2022-09-26T14:03:43.881Z,47.49
2022-09-26T14:06:33.892Z,47.85
2022-09-26T14:09:24.055Z,48.10
2022-09-26T14:12:32.572Z,48.25
2022-09-26T14:15:24.654Z,48.43
2022-09-26T14:18:33.476Z,48.61
2022-09-26T14:21:34.990Z,48.69
2022-09-26T14:24:38.840Z,48.88
2022-09-26T14:27:45.716Z,48.97
2022-09-26T14:30:36.907Z,49.02
2022-09-26T14:33:26.812Z,49.16
2022-09-26T14:36:26.057Z,49.30
2022-09-26T14:39:34.272Z,49.42
2022-09-26T14:42:26.386Z,49.48
2022-09-26T14:45:24.917Z,49.65
2022-09-26T14:48:29.245Z,49.62
2022-09-26T14:51:36.509Z,49.76
2022-09-26T14:54:28.357Z,49.70
2022-09-26T14:57:24.978Z,49.88
2022-09-26T15:00:39.796Z,49.91
2022-09-26T15:03:29.726Z,49.88
2022-09-26T15:06:19.992Z,50.07
2022-09-26T15:09:20.262Z,49.95
2022-09-26T15:12:13.728Z,49.92
2022-09-26T15:15:15.698Z,49.92
2022-09-26T15:18:14.305Z,49.95
2022-09-26T15:21:12.461Z,49.97
2022-09-26T15:24:04.921Z,49.98
2022-09-26T15:26:55.944Z,50.06
2022-09-26T15:29:48.151Z,50.09
2022-09-26T15:32:38.433Z,50.08
2022-09-26T15:35:28.970Z,50.13
2022-09-26T15:38:19.592Z,50.16
2022-09-26T15:41:36.877Z,50.18
2022-09-26T15:44:30.729Z,50.21
2022-09-26T15:47:40.747Z,50.24
2022-09-26T15:50:40.865Z,50.27
2022-09-26T15:53:34.675Z,50.38
2022-09-26T15:56:26.496Z,50.42
2022-09-26T15:59:20.422Z,50.45
2022-09-26T16:02:21.706Z,50.59
2022-09-26T16:05:13.286Z,50.76
2022-09-26T16:08:03.813Z,51.10
2022-09-26T16:10:56.607Z,51.19
2022-09-26T16:13:48.975Z,51.33
2022-09-26T16:16:38.912Z,51.77
2022-09-26T16:19:33.067Z,52.13
2022-09-26T16:22:51.099Z,52.33
2022-09-26T16:25:55.687Z,52.27
2022-09-26T16:28:51.864Z,52.65
2022-09-26T16:31:45.600Z,52.78
2022-09-26T16:34:35.530Z,52.45
2022-09-26T16:37:25.656Z,52.66
2022-09-26T16:40:18.410Z,52.70
2022-09-26T16:43:21.508Z,52.80
2022-09-26T16:46:17.174Z,52.99
2022-09-26T16:49:31.795Z,52.97
2022-09-26T16:52:28.681Z,52.97
2022-09-26T16:55:19.197Z,53.07
2022-09-26T16:58:13.255Z,53.32
2022-09-26T17:01:23.245Z,53.20
2022-09-26T17:04:17.418Z,53.14
2022-09-26T17:07:12.038Z,53.18
2022-09-26T17:10:02.467Z,53.03
2022-09-26T17:12:52.999Z,53.36
2022-09-26T17:15:43.205Z,53.55
2022-09-26T17:18:34.562Z,53.50
2022-09-26T17:21:24.590Z,53.65
2022-09-26T17:24:18.021Z,53.79
2022-09-26T17:27:08.608Z,53.59
2022-09-26T17:30:01.804Z,53.52
2022-09-26T17:32:53.737Z,53.78
2022-09-26T17:35:43.818Z,53.65
2022-09-26T17:38:38.567Z,53.77
2022-09-26T17:41:32.059Z,53.58
2022-09-26T17:44:23.720Z,53.38
2022-09-26T17:47:13.954Z,53.70
2022-09-26T17:50:04.337Z,53.72
2022-09-26T17:52:57.800Z,53.67
2022-09-26T17:55:48.625Z,53.79
2022-09-26T17:58:39.233Z,53.55
2022-09-26T18:01:33.782Z,53.59
2022-09-26T18:04:26.365Z,53.51
2022-09-26T18:07:16.603Z,53.49
2022-09-26T18:10:14.868Z,53.58
2022-09-26T18:13:12.089Z,53.58
2022-09-26T18:16:05.185Z,53.50
2022-09-26T18:18:56.024Z,53.57
2022-09-26T18:21:45.948Z,53.41
2022-09-26T18:24:36.056Z,53.43
2022-09-26T18:27:26.504Z,53.38
2022-09-26T18:30:17.022Z,53.43
2022-09-26T18:33:07.368Z,53.49
2022-09-26T18:35:57.559Z,53.44
2022-09-26T18:38:47.707Z,53.25
2022-09-26T18:41:39.094Z,53.37
2022-09-26T18:44:34.344Z,53.34
2022-09-26T18:47:24.335Z,53.23
2022-09-26T18:50:23.016Z,53.26
2022-09-26T18:53:15.240Z,53.16
2022-09-26T18:56:24.002Z,53.08
2022-09-26T18:59:14.133Z,53.07
2022-09-26T19:02:17.738Z,52.98
2022-09-26T19:05:10.762Z,53.04
2022-09-26T19:08:06.696Z,53.08
2022-09-26T19:10:57.136Z,53.04
2022-09-26T19:13:48.461Z,53.11
2022-09-26T19:16:39.237Z,53.08
2022-09-26T19:19:31.747Z,53.10
2022-09-26T19:22:21.894Z,53.11
2022-09-26T19:25:12.162Z,53.08
2022-09-26T19:28:03.145Z,53.09
2022-09-26T19:30:53.241Z,53.06
2022-09-26T19:33:43.803Z,53.03
2022-09-26T19:36:34.416Z,53.02
2022-09-26T19:39:25.748Z,53.12
2022-09-26T19:42:15.722Z,53.29
2022-09-26T19:45:09.328Z,53.00
2022-09-26T19:47:59.541Z,52.81
2022-09-26T19:50:49.876Z,52.74
2022-09-26T19:53:40.156Z,52.57
2022-09-26T19:56:30.158Z,52.51
2022-09-26T19:59:22.990Z,52.49
2022-09-26T20:02:18.472Z,52.52
2022-09-26T20:05:16.552Z,52.51
2022-09-26T20:08:10.409Z,52.61
2022-09-26T20:11:00.939Z,52.65
2022-09-26T20:14:09.499Z,52.67
2022-09-26T20:17:01.383Z,52.66
2022-09-26T20:19:56.387Z,52.78
2022-09-26T20:22:50.617Z,52.71
2022-09-26T20:25:40.856Z,52.59
2022-09-26T20:28:31.280Z,52.41
2022-09-26T20:31:25.597Z,52.36
2022-09-26T20:34:16.591Z,52.35
2022-09-26T20:37:07.740Z,52.40
2022-09-26T20:39:57.852Z,52.46
2022-09-26T20:42:50.013Z,52.65
2022-09-26T20:45:40.354Z,52.69
2022-09-26T20:48:33.486Z,52.68
2022-09-26T20:51:26.913Z,52.76
2022-09-26T20:54:25.953Z,52.82
2022-09-26T20:57:16.726Z,52.82
2022-09-26T21:00:09.969Z,53.01
2022-09-26T21:02:59.947Z,52.88
2022-09-26T21:05:50.157Z,52.84
2022-09-26T21:08:40.553Z,52.81
2022-09-26T21:11:30.468Z,52.89
2022-09-26T21:14:20.604Z,53.00
2022-09-26T21:17:14.323Z,52.95
2022-09-26T21:20:05.286Z,52.99
2022-09-26T21:23:14.553Z,52.95
2022-09-26T21:26:04.796Z,53.00
2022-09-26T21:28:55.381Z,53.04
2022-09-26T21:31:48.415Z,53.05
2022-09-26T21:34:38.801Z,53.04
2022-09-26T21:37:28.693Z,53.01
2022-09-26T21:40:18.796Z,53.08
2022-09-26T21:43:11.556Z,53.04
2022-09-26T21:46:01.526Z,53.13
2022-09-26T21:48:51.453Z,53.16
2022-09-26T21:51:41.810Z,53.15
2022-09-26T21:54:35.835Z,53.20
2022-09-26T21:57:28.976Z,53.16
2022-09-26T22:00:19.183Z,53.20
2022-09-26T22:03:09.304Z,53.17
2022-09-26T22:06:01.507Z,53.16
2022-09-26T22:08:54.903Z,53.20
2022-09-26T22:11:44.834Z,53.14
2022-09-26T22:14:34.770Z,53.16
2022-09-26T22:17:24.820Z,53.20
2022-09-26T22:20:15.364Z,53.23
2022-09-26T22:23:05.273Z,53.25
2022-09-26T22:25:55.324Z,53.23
2022-09-26T22:28:45.509Z,53.22
2022-09-26T22:31:35.537Z,53.22
2022-09-26T22:34:25.609Z,53.24
2022-09-26T22:37:15.500Z,53.19
2022-09-26T22:40:08.155Z,53.18
2022-09-26T22:42:58.084Z,53.22
2022-09-26T22:45:48.438Z,53.24
2022-09-26T22:48:40.825Z,53.27
2022-09-26T22:51:30.780Z,53.18
2022-09-26T22:54:20.972Z,53.22
2022-09-26T22:57:11.160Z,53.18
2022-09-26T23:00:01.561Z,53.26
2022-09-26T23:02:51.634Z,53.25
2022-09-26T23:05:42.871Z,53.20
2022-09-26T23:08:33.462Z,53.17
2022-09-26T23:11:23.711Z,53.15
2022-09-26T23:14:13.605Z,53.13
2022-09-26T23:17:03.912Z,53.14
2022-09-26T23:19:53.887Z,53.17
2022-09-26T23:22:44.964Z,53.16
2022-09-26T23:25:34.849Z,53.18
2022-09-26T23:28:25.254Z,53.18
2022-09-26T23:31:15.266Z,53.14
2022-09-26T23:34:05.773Z,53.18
2022-09-26T23:36:55.697Z,53.19
2022-09-26T23:39:46.138Z,53.15
2022-09-26T23:42:36.335Z,53.13
2022-09-26T23:45:26.550Z,53.12
2022-09-26T23:48:16.450Z,53.17
2022-09-26T23:51:06.561Z,53.16
2022-09-26T23:53:56.800Z,53.12
2022-09-26T23:56:46.718Z,53.09
2022-09-26T23:59:37.048Z,53.08
